Time;durP1;ratioP1;P1;durP2;ratioP2;P2;SDS_P1;SDS_P2;PMS_P1;PMS_P2;Temp;Humidity;BMP_temperature;BMP_pressure;BME280_temperature;BME280_humidity;BME280_pressure;Samples;Min_cycle;Max_cycle;Signal;HPM_P1;HPM_P2
2023/01/22 00:00:24;;;;;;;11.35;7.05;;;;;;;4.88;63.72;99944.84;7684773;32;38619;-85
2023/01/22 00:04:40;;;;;;;13.70;8.18;;;;;;;4.98;63.20;99940.75;7685006;32;37632;-84
2023/01/22 00:08:57;;;;;;;13.80;7.68;;;;;;;5.11;62.76;99943.25;7685719;32;40143;-83
2023/01/22 00:13:13;;;;;;;13.25;7.75;;;;;;;4.91;63.82;99937.31;7672115;32;39937;-83
2023/01/22 00:17:30;;;;;;;14.87;8.25;;;;;;;4.88;63.66;99950.25;7685631;32;37832;-83
2023/01/22 00:21:46;;;;;;;16.90;8.30;;;;;;;4.91;63.77;99950.84;7672032;32;37251;-84
2023/01/22 00:26:10;;;;;;;11.48;7.60;;;;;;;5.04;63.30;99935.25;7685461;32;40270;-84
2023/01/22 00:30:26;;;;;;;16.20;8.43;;;;;;;4.93;63.66;99932.50;7685618;32;39950;-83
2023/01/22 00:34:49;;;;;;;16.67;9.15;;;;;;;4.80;64.29;99928.12;7685322;32;38061;-83
2023/01/22 00:39:05;;;;;;;14.82;8.40;;;;;;;4.89;64.05;99949.16;7685408;32;37678;-84
2023/01/22 00:43:22;;;;;;;15.30;8.25;;;;;;;4.88;63.95;99947.53;7685393;32;39346;-84
2023/01/22 00:47:38;;;;;;;14.23;7.82;;;;;;;4.84;64.18;99957.16;7685202;32;40013;-84
2023/01/22 00:51:54;;;;;;;14.23;8.27;;;;;;;4.75;64.78;99957.72;7685142;32;37833;-85
2023/01/22 00:56:12;;;;;;;16.02;8.65;;;;;;;5.00;64.11;99962.94;7685633;32;37079;-83
2023/01/22 01:00:29;;;;;;;13.60;8.35;;;;;;;5.14;63.72;99953.59;7685222;32;40033;-84
2023/01/22 01:04:46;;;;;;;17.25;8.60;;;;;;;5.15;63.46;99947.13;7684986;32;40830;-84
2023/01/22 01:09:04;;;;;;;15.32;8.45;;;;;;;5.00;63.85;99952.12;7684933;32;38767;-85
2023/01/22 01:13:20;;;;;;;12.40;7.72;;;;;;;5.00;63.78;99957.53;7683987;32;37962;-83
2023/01/22 01:17:37;;;;;;;12.75;7.32;;;;;;;4.86;64.27;99954.22;7685048;32;39271;-84
2023/01/22 01:21:53;;;;;;;15.02;8.32;;;;;;;4.92;64.17;99956.00;7684862;32;40957;-84
2023/01/22 01:26:12;;;;;;;13.05;8.52;;;;;;;4.85;63.79;99956.09;7684735;32;38731;-83
2023/01/22 01:30:28;;;;;;;12.85;7.68;;;;;;;4.75;64.36;99961.22;7671498;32;37973;-84
2023/01/22 01:34:46;;;;;;;15.00;8.27;;;;;;;5.04;63.79;99966.84;7684957;32;39525;-83
2023/01/22 01:39:03;;;;;;;16.50;8.43;;;;;;;5.05;63.84;99963.94;7671470;32;39854;-84
2023/01/22 01:43:19;;;;;;;15.07;8.68;;;;;;;4.96;64.36;99959.06;7671186;32;37894;-83
2023/01/22 01:47:35;;;;;;;14.25;8.23;;;;;;;4.96;64.54;99964.47;7670977;32;36954;-83
2023/01/22 01:51:54;;;;;;;14.98;8.52;;;;;;;4.92;64.47;99963.31;7684650;32;39353;-83
2023/01/22 01:56:13;;;;;;;15.38;8.23;;;;;;;4.92;64.40;99966.00;7671168;32;39407;-83
2023/01/22 02:00:32;;;;;;;13.98;8.45;;;;;;;5.05;64.22;99972.03;7684365;32;37671;-84
2023/01/22 02:04:49;;;;;;;11.55;6.25;;;;;;;5.05;63.77;99973.88;7670553;32;37984;-83
2023/01/22 02:09:06;;;;;;;14.52;7.62;;;;;;;5.05;63.67;99963.94;7670648;32;39356;-83
2023/01/22 02:13:28;;;;;;;10.65;5.93;;;;;;;5.01;63.35;99967.31;7684001;32;40016;-85
2023/01/22 02:17:46;;;;;;;9.25;5.20;;;;;;;5.11;62.67;99972.97;7684144;32;38727;-83
2023/01/22 02:22:05;;;;;;;10.05;5.85;;;;;;;5.08;62.54;99973.44;7684005;32;36124;-83
2023/01/22 02:26:21;;;;;;;9.63;5.43;;;;;;;4.91;63.03;99957.06;7683375;32;39933;-83
2023/01/22 02:30:37;;;;;;;8.75;4.30;;;;;;;4.64;64.05;99951.19;7683809;32;40810;-83
2023/01/22 02:34:54;;;;;;;8.00;4.95;;;;;;;4.95;63.08;99960.12;7683544;32;38633;-83
2023/01/22 02:39:11;;;;;;;11.05;5.35;;;;;;;4.86;63.14;99949.66;7669907;32;37073;-83
2023/01/22 02:43:27;;;;;;;10.63;5.70;;;;;;;4.78;63.17;99949.97;7683493;32;40116;-83
2023/01/22 02:47:43;;;;;;;10.95;5.90;;;;;;;4.73;63.09;99944.44;7683233;32;39991;-83
2023/01/22 02:51:59;;;;;;;8.32;5.37;;;;;;;4.70;63.16;99944.88;7683187;32;37865;-83
2023/01/22 02:56:15;;;;;;;7.70;4.93;;;;;;;4.44;63.60;99952.28;7683132;32;37551;-83
2023/01/22 03:00:31;;;;;;;7.55;4.95;;;;;;;4.49;63.26;99938.13;7683095;32;40417;-83
2023/01/22 03:04:48;;;;;;;7.75;4.72;;;;;;;4.53;63.09;99949.28;7682790;32;40493;-83
2023/01/22 03:09:05;;;;;;;9.50;5.12;;;;;;;4.36;63.51;99947.19;7682793;32;37846;-83
2023/01/22 03:22:31;;;;;;;8.25;5.18;;;;;;;4.41;62.97;99941.94;7682561;32;40021;-82
2023/01/22 03:26:48;;;;;;;9.23;5.47;;;;;;;4.24;63.71;99951.72;7682431;32;37941;-82
2023/01/22 03:31:05;;;;;;;8.15;5.47;;;;;;;4.24;63.84;99946.31;7682430;32;37892;-85
2023/01/22 03:35:21;;;;;;;9.20;5.72;;;;;;;4.30;63.59;99940.03;7673194;32;39211;-75
2023/01/22 03:39:39;;;;;;;7.82;5.40;;;;;;;4.29;63.83;99932.97;7697320;32;40302;-78
2023/01/22 03:43:57;;;;;;;7.37;5.07;;;;;;;4.03;64.58;99945.72;7687147;32;37969;-81
2023/01/22 03:48:13;;;;;;;11.07;5.68;;;;;;;4.20;63.99;99942.44;7686457;32;37147;-83
2023/01/22 03:52:30;;;;;;;9.27;5.78;;;;;;;4.10;64.34;99949.16;7685980;32;40895;-82
2023/01/22 03:56:46;;;;;;;9.07;5.55;;;;;;;4.25;63.87;99945.28;7685929;32;40258;-84
2023/01/22 04:01:06;;;;;;;11.63;5.55;;;;;;;3.94;64.58;99952.47;7685818;32;37986;-83
2023/01/22 04:05:22;;;;;;;9.70;5.00;;;;;;;3.96;64.62;99950.38;7659625;32;37325;-82
2023/01/22 04:09:38;;;;;;;7.80;5.03;;;;;;;4.11;64.26;99948.13;7659415;32;40168;-82
2023/01/22 04:13:55;;;;;;;9.98;5.32;;;;;;;3.98;64.25;99942.88;7645800;32;40048;-83
2023/01/22 04:18:12;;;;;;;8.57;5.43;;;;;;;4.21;65.77;99935.97;7659163;32;37647;-83
2023/01/22 04:22:29;;;;;;;8.75;4.62;;;;;;;4.08;64.67;99937.78;7659221;32;37755;-84
2023/01/22 04:26:45;;;;;;;8.77;5.07;;;;;;;4.09;64.16;99938.63;7659175;32;40101;-83
2023/01/22 04:31:03;;;;;;;9.35;5.70;;;;;;;3.89;64.32;99950.44;7659154;32;39764;-83
2023/01/22 04:35:20;;;;;;;9.40;5.20;;;;;;;4.11;63.72;99958.91;7659135;32;37037;-81
2023/01/22 04:39:36;;;;;;;10.13;5.82;;;;;;;4.04;64.14;99950.09;7659077;32;37270;-83
2023/01/22 04:43:52;;;;;;;10.30;6.57;;;;;;;3.89;64.55;99960.41;7658996;32;39577;-83
2023/01/22 04:48:09;;;;;;;9.68;6.40;;;;;;;3.82;64.62;99954.28;7658692;32;39941;-82
2023/01/22 04:52:26;;;;;;;12.27;6.50;;;;;;;4.01;64.05;99958.62;7658857;32;37988;-83
2023/01/22 04:56:42;;;;;;;12.13;6.85;;;;;;;3.90;64.08;99956.69;7658903;32;38043;-82
2023/01/22 05:00:58;;;;;;;9.65;6.00;;;;;;;4.09;63.89;99960.22;7658892;32;40189;-83
2023/01/22 05:05:15;;;;;;;13.07;7.30;;;;;;;4.11;63.90;99953.53;7683173;32;40896;-83
2023/01/22 05:09:31;;;;;;;11.93;7.15;;;;;;;4.11;63.88;99953.53;7684973;32;37932;-83
2023/01/22 05:13:48;;;;;;;14.25;7.18;;;;;;;4.16;63.69;99946.63;7685149;32;37257;-83
2023/01/22 05:18:04;;;;;;;12.45;7.47;;;;;;;3.83;64.76;99947.81;7685213;32;39399;-84
2023/01/22 05:22:20;;;;;;;14.52;8.00;;;;;;;3.82;64.82;99944.28;7684978;32;39989;-82
2023/01/22 05:26:36;;;;;;;14.52;8.60;;;;;;;3.81;65.38;99958.00;7684913;32;37937;-82
2023/01/22 05:30:53;;;;;;;15.23;8.52;;;;;;;3.85;65.44;99964.63;7684770;32;37085;-82
2023/01/22 05:35:09;;;;;;;15.18;8.48;;;;;;;3.71;66.10;99980.91;7684859;32;39076;-82
2023/01/22 05:39:26;;;;;;;15.27;7.78;;;;;;;3.88;65.79;99996.50;7684855;32;39907;-82
2023/01/22 05:43:42;;;;;;;13.73;7.85;;;;;;;3.86;65.91;99994.03;7684617;32;38096;-83
2023/01/22 05:47:58;;;;;;;12.68;7.82;;;;;;;4.03;65.48;99994.28;7684476;32;37886;-84
2023/01/22 05:52:15;;;;;;;16.92;9.32;;;;;;;4.16;65.15;99993.34;7684558;32;39361;-83
2023/01/22 05:56:31;;;;;;;14.70;8.80;;;;;;;4.07;65.45;100003.59;7684449;32;40860;-82
2023/01/22 06:00:50;;;;;;;16.80;9.23;;;;;;;4.17;65.19;100010.34;7683525;32;37504;-82
2023/01/22 06:05:07;;;;;;;15.50;8.60;;;;;;;4.06;65.44;100026.22;7684148;32;37168;-82
2023/01/22 06:09:24;;;;;;;14.48;8.23;;;;;;;4.22;65.04;100013.19;7684132;32;39335;-83
2023/01/22 06:13:40;;;;;;;15.02;9.13;;;;;;;4.20;65.05;100028.78;7684234;32;40941;-82
2023/01/22 06:18:00;;;;;;;15.23;8.00;;;;;;;3.68;66.84;100027.19;7684042;32;37888;-83
2023/01/22 06:22:18;;;;;;;14.18;8.02;;;;;;;4.43;64.52;100028.94;7670259;32;37089;-84
2023/01/22 06:26:34;;;;;;;13.13;8.55;;;;;;;4.22;65.11;100035.59;7683838;32;40137;-83
2023/01/22 06:30:51;;;;;;;13.35;8.23;;;;;;;3.97;65.97;100043.75;7683651;32;40845;-82
2023/01/22 06:35:08;;;;;;;14.30;8.27;;;;;;;3.91;66.12;100055.41;7683781;32;37930;-82
2023/01/22 06:39:24;;;;;;;12.55;8.25;;;;;;;4.10;65.37;100059.78;7683758;32;37978;-83
2023/01/22 06:43:40;;;;;;;14.77;9.32;;;;;;;4.10;65.55;100065.19;7683628;32;40020;-83
2023/01/22 06:47:57;;;;;;;11.88;7.72;;;;;;;4.19;65.27;100073.84;7683208;32;40823;-83
2023/01/22 06:52:13;;;;;;;13.00;7.57;;;;;;;4.32;65.10;100083.69;7683087;32;38752;-82
2023/01/22 06:56:29;;;;;;;14.02;8.65;;;;;;;4.29;65.10;100089.50;7683104;32;37176;-82
2023/01/22 07:00:45;;;;;;;16.60;9.05;;;;;;;4.21;64.97;100084.41;7682985;32;39100;-83
2023/01/22 07:05:02;;;;;;;14.70;7.97;;;;;;;4.16;65.03;100095.03;7682851;32;39983;-82
2023/01/22 07:09:18;;;;;;;13.62;8.13;;;;;;;4.26;64.66;100092.66;7682621;32;37967;-82
2023/01/22 07:13:34;;;;;;;16.10;8.25;;;;;;;4.27;64.46;100097.00;7686105;32;37905;-83
2023/01/22 07:17:51;;;;;;;14.98;8.50;;;;;;;4.23;64.52;100099.34;7672693;32;40106;-83
2023/01/22 07:22:08;;;;;;;17.60;9.65;;;;;;;3.99;65.54;100098.31;7686304;32;40784;-75
2023/01/22 07:26:24;;;;;;;15.00;9.07;;;;;;;4.00;65.75;100108.06;7698494;32;38215;-75
2023/01/22 07:30:42;;;;;;;19.12;10.18;;;;;;;4.07;65.93;100114.22;7691419;32;37408;-84
2023/01/22 07:34:58;;;;;;;17.60;9.60;;;;;;;4.07;66.06;100118.78;7687062;32;39616;-83
2023/01/22 07:39:14;;;;;;;16.90;9.25;;;;;;;4.07;66.21;100118.78;7686094;32;39921;-83
2023/01/22 07:43:31;;;;;;;19.05;9.68;;;;;;;3.98;66.52;100120.09;7685990;32;37863;-83
2023/01/22 07:47:56;;;;;;;18.05;10.82;;;;;;;4.15;66.38;100118.50;7685945;32;37030;-82
2023/01/22 07:52:12;;;;;;;18.25;10.55;;;;;;;4.38;65.40;100125.97;7672577;32;39551;-81
2023/01/22 07:56:28;;;;;;;20.35;10.98;;;;;;;3.97;66.68;100135.47;7685655;32;40053;-82
2023/01/22 08:00:45;;;;;;;15.93;9.10;;;;;;;3.98;66.72;100137.09;7685751;32;38703;-83
2023/01/22 08:05:01;;;;;;;12.88;7.75;;;;;;;4.34;65.67;100130.16;7685733;32;37954;-83
2023/01/22 08:09:23;;;;;;;14.50;8.77;;;;;;;4.25;66.20;100135.00;7685978;32;39812;-82
2023/01/22 08:13:39;;;;;;;17.95;9.10;;;;;;;4.54;65.65;100156.16;7685725;32;40571;-82
2023/01/22 08:17:56;;;;;;;18.15;10.32;;;;;;;4.41;65.73;100159.78;7685704;32;37939;-83
2023/01/22 08:22:12;;;;;;;20.30;10.18;;;;;;;4.60;65.35;100169.56;7685143;32;38080;-75
2023/01/22 08:26:28;;;;;;;19.73;10.10;;;;;;;4.76;66.72;100173.59;7685352;32;40003;-75
2023/01/22 08:30:45;;;;;;;15.15;9.10;;;;;;;4.90;66.52;100174.25;7678119;32;40790;-80
2023/01/22 08:35:02;;;;;;;15.57;8.80;;;;;;;5.08;68.32;100165.31;7706773;32;38786;-80
2023/01/22 08:39:18;;;;;;;18.10;9.85;;;;;;;5.18;66.53;100176.41;7711271;32;37155;-79
2023/01/22 08:43:34;;;;;;;21.62;11.80;;;;;;;5.05;65.68;100185.53;7699425;32;40237;-81
2023/01/22 08:47:55;;;;;;;23.17;11.93;;;;;;;5.16;64.64;100188.53;7693832;32;40806;-80
2023/01/22 08:52:11;;;;;;;19.65;10.35;;;;;;;5.13;65.25;100197.88;7696551;32;38024;-79
2023/01/22 08:56:27;;;;;;;15.77;8.95;;;;;;;5.12;65.22;100198.12;7687223;32;36938;-80
2023/01/22 09:00:43;;;;;;;16.37;9.57;;;;;;;5.43;65.07;100207.91;7686915;32;39053;-79
2023/01/22 09:05:00;;;;;;;16.15;8.70;;;;;;;5.19;65.57;100207.81;7684553;32;39938;-79
2023/01/22 09:09:16;;;;;;;16.58;8.80;;;;;;;5.52;65.38;100211.97;7707865;32;38043;-79
2023/01/22 09:13:32;;;;;;;16.40;8.93;;;;;;;5.44;65.39;100217.69;7690251;32;37995;-81
2023/01/22 09:17:48;;;;;;;15.93;9.35;;;;;;;5.62;64.97;100224.94;7683575;32;40090;-79
2023/01/22 09:22:07;;;;;;;15.70;9.35;;;;;;;5.61;64.20;100232.25;7684601;32;39485;-79
2023/01/22 09:26:26;;;;;;;19.70;10.32;;;;;;;4.98;65.00;100235.28;7684083;32;37814;-79
2023/01/22 09:30:43;;;;;;;18.02;9.90;;;;;;;5.31;64.28;100247.59;7683316;32;37321;-79
2023/01/22 09:34:59;;;;;;;15.20;8.73;;;;;;;5.39;65.05;100241.88;7688886;32;40070;-80
2023/01/22 09:39:15;;;;;;;16.17;8.65;;;;;;;5.82;64.40;100247.16;7704879;32;41235;-79
2023/01/22 09:43:48;;;;;;;11.35;7.22;;;;;;;5.92;65.13;100238.47;7692197;32;37661;-78
2023/01/22 09:48:10;;;;;;;14.63;7.60;;;;;;;6.26;65.12;100236.16;7671661;32;37975;-81
2023/01/22 09:52:33;;;;;;;12.25;7.50;;;;;;;6.57;64.37;100228.75;7670297;32;39566;-81
2023/01/22 09:56:53;;;;;;;8.95;6.03;;;;;;;6.40;65.82;100225.94;7694142;32;39607;-80
2023/01/22 10:01:10;;;;;;;11.02;6.22;;;;;;;6.67;64.54;100223.56;7680641;32;37949;-81
2023/01/22 10:05:35;;;;;;;17.75;9.48;;;;;;;6.67;64.84;100229.00;7709812;32;37179;-80
2023/01/22 10:09:54;;;;;;;16.55;9.82;;;;;;;6.87;64.11;100227.84;7687864;32;39623;-80
2023/01/22 10:14:14;;;;;;;12.55;7.15;;;;;;;6.79;63.66;100233.59;7701041;32;39989;-79
2023/01/22 10:18:42;;;;;;;12.13;6.97;;;;;;;6.38;63.60;100237.00;7696536;32;38578;-81
2023/01/22 10:23:11;;;;;;;13.68;7.62;;;;;;;6.55;63.41;100247.97;7681738;32;38071;-80
2023/01/22 10:27:38;;;;;;;15.05;7.60;;;;;;;6.45;62.71;100241.47;7686867;32;39341;-80
2023/01/22 10:32:02;;;;;;;10.60;5.90;;;;;;;6.58;62.78;100246.66;7697285;32;41011;-82
2023/01/22 10:36:19;;;;;;;10.75;6.37;;;;;;;6.48;61.66;100241.00;7699906;32;37278;-80
2023/01/22 10:40:39;;;;;;;12.20;6.82;;;;;;;6.55;62.73;100264.22;7706181;32;37204;-80
2023/01/22 10:45:08;;;;;;;11.23;6.45;;;;;;;6.71;62.54;100257.28;7687086;32;39529;-82
2023/01/22 10:49:26;;;;;;;14.02;7.18;;;;;;;6.66;63.42;100253.63;7712272;32;40138;-85
2023/01/22 10:53:56;;;;;;;11.60;6.50;;;;;;;6.47;65.33;100261.00;7713069;32;37948;-83
2023/01/22 10:58:15;;;;;;;11.60;6.82;;;;;;;6.69;65.27;100274.81;7699327;32;39506;-82
2023/01/22 11:02:34;;;;;;;10.48;6.07;;;;;;;6.85;63.87;100251.63;7712046;32;39466;-80
2023/01/22 11:06:55;;;;;;;13.07;7.35;;;;;;;6.61;64.99;100257.03;7697578;32;39412;-84
2023/01/22 11:11:13;;;;;;;25.02;12.80;;;;;;;6.74;65.51;100247.84;7710090;32;38409;-82
2023/01/22 11:15:54;;;;;;;17.92;10.75;;;;;;;6.62;65.02;100247.84;7696128;32;37664;-84
2023/01/22 11:20:26;;;;;;;14.05;8.27;;;;;;;6.81;64.08;100255.88;7711188;32;40663;-83
2023/01/22 11:24:47;;;;;;;14.68;8.15;;;;;;;6.97;63.78;100260.59;7700000;32;40872;-83
2023/01/22 11:29:24;;;;;;;14.27;8.65;;;;;;;6.62;63.72;100264.09;7724770;32;37858;-74
2023/01/22 11:33:49;;;;;;;14.05;8.80;;;;;;;6.75;63.37;100260.34;7722882;32;37535;-82
2023/01/22 11:38:24;;;;;;;14.40;9.05;;;;;;;6.44;63.91;100269.62;7718544;32;39353;-80
2023/01/22 11:42:50;;;;;;;17.90;8.68;;;;;;;6.42;65.08;100269.84;7696473;32;40001;-84
2023/01/22 11:47:24;;;;;;;15.05;8.55;;;;;;;6.58;64.57;100268.34;7672514;32;37841;-83
2023/01/22 11:52:03;;;;;;;13.30;7.32;;;;;;;6.63;63.60;100282.00;7685644;32;37111;-84
2023/01/22 11:56:37;;;;;;;14.20;8.45;;;;;;;6.78;63.41;100284.28;7682922;32;40032;-84
2023/01/22 12:01:11;;;;;;;13.50;8.07;;;;;;;6.65;64.09;100279.06;7671589;32;39572;-83
2023/01/22 12:06:02;;;;;;;14.45;8.38;;;;;;;6.48;64.17;100290.56;7673654;32;37608;-83
2023/01/22 12:10:42;;;;;;;13.62;8.23;;;;;;;6.31;64.92;100295.84;7688340;32;37975;-84
2023/01/22 12:15:20;;;;;;;15.00;8.32;;;;;;;6.38;65.03;100291.16;7693980;32;39492;-83
2023/01/22 12:19:39;;;;;;;14.43;8.57;;;;;;;6.42;65.50;100290.69;7711954;32;40130;-85
2023/01/22 12:24:04;;;;;;;16.23;8.77;;;;;;;6.69;64.94;100296.50;7712248;32;37617;-83
2023/01/22 12:28:25;;;;;;;13.43;8.60;;;;;;;6.48;65.75;100314.13;7712061;32;37242;-84
2023/01/22 12:32:45;;;;;;;12.75;8.15;;;;;;;6.65;65.36;100312.41;7711659;32;39992;-82
2023/01/22 12:37:02;;;;;;;15.90;9.45;;;;;;;6.87;64.99;100298.28;7698550;32;41104;-83
2023/01/22 12:41:31;;;;;;;16.20;8.50;;;;;;;6.83;65.66;100306.06;7698212;32;38643;-83
2023/01/22 12:46:00;;;;;;;15.32;9.38;;;;;;;6.85;66.04;100306.66;7710567;32;37282;-85
2023/01/22 12:50:24;;;;;;;13.80;8.38;;;;;;;6.89;65.78;100307.00;7699020;32;39552;-83
2023/01/22 12:54:41;;;;;;;15.25;8.73;;;;;;;6.71;66.62;100316.03;7711858;32;40038;-83
2023/01/22 12:58:58;;;;;;;16.15;9.43;;;;;;;6.64;66.06;100326.16;7698203;32;37916;-83
2023/01/22 13:03:25;;;;;;;16.73;9.80;;;;;;;7.04;64.93;100329.06;7679613;32;37204;-81
2023/01/22 13:07:48;;;;;;;15.27;10.20;;;;;;;6.92;65.16;100339.06;7686694;32;40237;-83
2023/01/22 13:12:24;;;;;;;18.98;10.75;;;;;;;6.65;65.90;100344.09;7711573;32;40699;-84
2023/01/22 13:16:40;;;;;;;17.05;10.32;;;;;;;6.95;65.06;100347.56;7709816;32;38984;-80
2023/01/22 13:21:05;;;;;;;18.92;11.12;;;;;;;6.95;65.01;100352.13;7710978;32;35541;-85
2023/01/22 13:25:28;;;;;;;17.30;10.30;;;;;;;6.96;64.95;100356.50;7711674;32;39587;-84
2023/01/22 13:29:44;;;;;;;;;;;;;;;7.15;64.53;100351.81;7699314;32;39944;-86
2023/01/22 13:34:07;;;;;;;18.98;11.82;;;;;;;7.24;64.31;100355.81;7711411;32;38073;-85
2023/01/22 13:38:29;;;;;;;19.50;10.65;;;;;;;7.07;64.87;100374.69;7694991;32;37300;-84
2023/01/22 13:42:46;;;;;;;20.67;11.50;;;;;;;6.95;64.96;100376.53;7684555;32;39075;-82
2023/01/22 13:47:02;;;;;;;18.80;10.90;;;;;;;6.97;64.86;100393.41;7670865;32;39966;-80
2023/01/22 13:51:20;;;;;;;18.92;10.13;;;;;;;7.18;64.41;100392.03;7670620;32;37949;-82
2023/01/22 13:55:36;;;;;;;19.52;11.02;;;;;;;7.00;64.96;100402.94;7670866;32;37936;-81
2023/01/22 13:59:54;;;;;;;23.73;10.82;;;;;;;7.02;65.23;100409.81;7671919;32;40134;-83
2023/01/22 14:04:27;;;;;;;17.95;11.25;;;;;;;6.96;65.68;100410.72;7710243;32;40946;-83
2023/01/22 14:08:54;;;;;;;18.85;10.73;;;;;;;6.96;66.13;100416.16;7710804;32;39211;-81
2023/01/22 14:13:12;;;;;;;19.92;11.55;;;;;;;7.12;65.50;100431.75;7697132;32;37997;-81
2023/01/22 14:17:33;;;;;;;17.77;10.68;;;;;;;7.01;65.59;100437.97;7685210;32;40054;-82
2023/01/22 14:21:49;;;;;;;20.83;11.50;;;;;;;7.06;65.83;100431.84;7671972;32;40918;-82
2023/01/22 14:26:07;;;;;;;20.80;11.38;;;;;;;7.27;65.05;100430.47;7710230;32;38058;-82
2023/01/22 14:30:23;;;;;;;21.10;10.88;;;;;;;7.26;64.88;100437.78;7696515;32;37331;-83
2023/01/22 14:34:39;;;;;;;21.98;11.65;;;;;;;7.20;65.28;100433.28;7710195;32;39220;-82
2023/01/22 14:38:57;;;;;;;22.60;12.82;;;;;;;7.10;65.96;100444.69;7696261;32;39818;-80
2023/01/22 14:43:14;;;;;;;20.23;11.57;;;;;;;7.18;65.77;100440.03;7709813;32;37733;-81
2023/01/22 14:47:30;;;;;;;23.60;14.18;;;;;;;6.86;66.55;100464.69;7685440;32;38042;-80
2023/01/22 14:51:46;;;;;;;26.40;14.35;;;;;;;7.11;65.92;100467.22;7682817;32;39366;-81
2023/01/22 14:56:03;;;;;;;26.92;14.15;;;;;;;6.79;65.89;100472.09;7669402;32;39833;-82
2023/01/22 15:00:20;;;;;;;27.25;14.40;;;;;;;6.80;65.51;100481.88;7669034;32;37916;-81
2023/01/22 15:04:40;;;;;;;25.55;14.60;;;;;;;6.65;65.61;100484.97;7682444;32;37235;-83
2023/01/22 15:08:57;;;;;;;31.20;15.85;;;;;;;6.67;65.73;100483.69;7683347;32;39353;-83
2023/01/22 15:13:13;;;;;;;30.42;14.10;;;;;;;6.77;65.52;100494.00;7691929;32;40009;-82
2023/01/22 15:17:29;;;;;;;30.55;14.73;;;;;;;6.79;65.47;100501.91;7682315;32;39179;-81
2023/01/22 15:21:45;;;;;;;28.92;14.70;;;;;;;6.78;65.69;100501.06;7682325;32;38000;-81
2023/01/22 15:26:35;;;;;;;28.38;15.27;;;;;;;6.56;66.62;100508.84;7681842;32;39060;-83
2023/01/22 15:30:52;;;;;;;26.25;14.43;;;;;;;6.75;65.82;100513.19;7683627;32;39631;-83
2023/01/22 15:35:09;;;;;;;35.50;18.75;;;;;;;6.98;65.23;100511.63;7695485;32;38840;-80
2023/01/22 15:39:27;;;;;;;36.03;18.12;;;;;;;6.91;65.48;100521.75;7684825;32;36633;-81
2023/01/22 15:43:44;;;;;;;27.00;15.32;;;;;;;6.88;65.50;100525.75;7685910;32;39827;-80
2023/01/22 15:48:00;;;;;;;30.60;15.95;;;;;;;6.68;65.77;100534.12;7685937;32;39966;-80
2023/01/22 15:52:17;;;;;;;35.58;19.85;;;;;;;6.66;65.86;100547.09;7693631;32;37932;-82
2023/01/22 15:56:36;;;;;;;48.90;22.73;;;;;;;6.39;66.97;100547.38;7709470;32;38037;-79
2023/01/22 16:00:53;;;;;;;44.17;23.52;;;;;;;6.76;65.59;100551.94;7694226;32;39367;-81
2023/01/22 16:05:12;;;;;;;49.30;27.08;;;;;;;6.55;65.86;100561.38;7684448;32;40000;-80
2023/01/22 16:09:30;;;;;;;45.28;24.00;;;;;;;6.59;65.59;100568.00;7685648;32;38099;-83
2023/01/22 16:13:47;;;;;;;43.63;22.23;;;;;;;6.45;65.69;100574.62;7685711;32;37159;-80
2023/01/22 16:18:03;;;;;;;38.70;22.20;;;;;;;6.54;65.58;100571.41;7685622;32;40662;-81
2023/01/22 16:22:19;;;;;;;42.62;21.42;;;;;;;6.47;65.54;100577.91;7697866;32;39735;-75
2023/01/22 16:26:35;;;;;;;40.58;24.10;;;;;;;6.39;66.44;100574.47;7696254;32;38909;-80
2023/01/22 16:30:52;;;;;;;42.08;22.45;;;;;;;6.52;66.04;100583.50;7673486;32;37291;-83
2023/01/22 16:35:09;;;;;;;40.75;23.98;;;;;;;6.69;65.51;100587.28;7687918;32;40115;-83
2023/01/22 16:39:25;;;;;;;40.70;22.98;;;;;;;6.41;66.55;100587.78;7694881;32;39605;-83
2023/01/22 16:43:42;;;;;;;41.63;23.15;;;;;;;6.27;67.04;100572.75;7696702;32;38564;-79
2023/01/22 16:47:58;;;;;;;41.47;21.33;;;;;;;6.29;66.79;100584.97;7685093;32;37990;-83
2023/01/22 16:52:14;;;;;;;35.38;20.50;;;;;;;6.63;65.69;100580.03;7702794;32;40172;-81
2023/01/22 16:56:38;;;;;;;38.05;19.77;;;;;;;6.33;66.77;100593.50;7711644;32;40548;-81
2023/01/22 17:00:54;;;;;;;44.63;22.85;;;;;;;6.20;67.08;100597.16;7711532;32;38794;-80
2023/01/22 17:05:12;;;;;;;41.75;21.05;;;;;;;6.34;66.39;100614.13;7711432;32;37289;-82
2023/01/22 17:09:35;;;;;;;37.58;21.87;;;;;;;6.31;66.26;100619.97;7693305;32;39990;-84
2023/01/22 17:13:52;;;;;;;40.10;22.00;;;;;;;6.36;65.87;100614.72;7698691;32;39768;-81
2023/01/22 17:18:08;;;;;;;41.08;21.37;;;;;;;6.33;66.00;100624.13;7711317;32;38689;-82
2023/01/22 17:22:25;;;;;;;40.90;21.15;;;;;;;6.24;66.21;100624.63;7697795;32;37234;-81
2023/01/22 17:26:43;;;;;;;37.13;20.67;;;;;;;6.28;66.20;100626.69;7684798;32;39923;-83
2023/01/22 17:31:11;;;;;;;39.42;21.60;;;;;;;6.21;66.55;100631.34;7707777;32;39923;-82
2023/01/22 17:35:28;;;;;;;39.05;20.75;;;;;;;6.04;67.28;100631.06;7711169;32;37858;-81
2023/01/22 17:39:49;;;;;;;46.08;23.50;;;;;;;6.29;66.31;100631.03;7697654;32;38065;-80
2023/01/22 17:44:05;;;;;;;38.60;20.80;;;;;;;6.18;66.43;100643.41;7684629;32;39858;-82
2023/01/22 17:48:21;;;;;;;47.50;23.67;;;;;;;6.11;66.77;100641.84;7684511;32;40578;-80
2023/01/22 17:52:38;;;;;;;49.40;24.17;;;;;;;6.25;66.33;100637.94;7684367;32;38269;-82
2023/01/22 17:56:54;;;;;;;47.58;26.25;;;;;;;6.19;66.33;100636.97;7679909;32;37934;-83
2023/01/22 18:01:13;;;;;;;49.38;26.87;;;;;;;6.02;66.56;100638.56;7684386;32;39328;-83
2023/01/22 18:05:31;;;;;;;47.72;25.90;;;;;;;6.17;66.47;100662.59;7683006;32;40060;-82
2023/01/22 18:09:47;;;;;;;45.50;23.95;;;;;;;5.97;66.54;100665.47;7669599;32;38535;-82
2023/01/22 18:14:06;;;;;;;47.20;23.95;;;;;;;5.82;66.96;100676.56;7682973;32;37845;-80
2023/01/22 18:18:22;;;;;;;49.15;25.65;;;;;;;6.09;66.19;100679.09;7681280;32;39313;-80
2023/01/22 18:22:38;;;;;;;45.12;24.15;;;;;;;6.08;66.39;100685.59;7682985;32;40773;-83
2023/01/22 18:26:56;;;;;;;48.40;25.60;;;;;;;6.10;66.41;100684.28;7683158;32;37903;-84
2023/01/22 18:31:15;;;;;;;45.78;25.27;;;;;;;6.25;65.92;100705.66;7683172;32;37210;-84
2023/01/22 18:35:33;;;;;;;47.45;24.98;;;;;;;6.16;66.02;100704.28;7683803;32;39048;-83
2023/01/22 18:39:49;;;;;;;52.90;27.58;;;;;;;6.19;65.96;100701.09;7682888;32;40621;-83
2023/01/22 18:44:07;;;;;;;55.35;28.62;;;;;;;6.00;66.51;100692.06;7683352;32;38740;-81
2023/01/22 18:48:23;;;;;;;51.28;27.92;;;;;;;5.95;66.40;100695.44;7683013;32;37330;-83
2023/01/22 18:52:39;;;;;;;43.97;21.62;;;;;;;6.14;65.78;100701.78;7687898;32;40155;-82
2023/01/22 18:56:57;;;;;;;42.33;21.35;;;;;;;5.89;66.29;100712.53;7683185;32;40515;-85
2023/01/22 19:01:21;;;;;;;35.10;18.85;;;;;;;5.87;66.30;100722.75;7690065;32;37881;-84
2023/01/22 19:05:38;;;;;;;42.00;20.02;;;;;;;5.72;66.50;100704.09;7677319;32;37758;-83
2023/01/22 19:09:55;;;;;;;36.65;18.60;;;;;;;5.83;66.07;100705.31;7685214;32;39071;-83
2023/01/22 19:14:17;;;;;;;42.22;19.30;;;;;;;5.94;65.40;100720.81;7686265;32;40828;-83
2023/01/22 19:18:33;;;;;;;34.67;18.95;;;;;;;5.86;65.37;100709.44;7671721;32;38060;-84
2023/01/22 19:22:49;;;;;;;32.90;18.23;;;;;;;5.52;65.91;100689.84;7671201;32;36742;-83
2023/01/22 19:27:06;;;;;;;41.22;19.70;;;;;;;5.51;65.81;100694.44;7684346;32;40127;-84
2023/01/22 19:31:26;;;;;;;33.88;18.33;;;;;;;5.57;65.14;100704.41;7684501;32;40822;-82
2023/01/22 19:35:46;;;;;;;33.13;18.45;;;;;;;5.69;64.59;100695.59;7671164;32;38512;-85
2023/01/22 19:40:06;;;;;;;37.30;19.73;;;;;;;5.62;64.89;100696.47;7670407;32;37014;-84
2023/01/22 19:44:22;;;;;;;40.55;19.85;;;;;;;5.40;65.37;100698.66;7669054;32;39352;-86
2023/01/22 19:48:39;;;;;;;39.13;19.67;;;;;;;5.34;65.44;100686.00;7680976;32;39878;-85
2023/01/22 19:52:55;;;;;;;44.35;22.48;;;;;;;5.54;64.70;100718.34;7681134;32;38763;-84
2023/01/22 19:57:11;;;;;;;51.37;24.23;;;;;;;5.13;65.69;100743.91;7680931;32;37068;-82
2023/01/22 20:01:28;;;;;;;50.42;23.87;;;;;;;5.08;65.99;100749.09;7703704;32;38947;-82
2023/01/22 20:05:44;;;;;;;43.75;22.77;;;;;;;5.38;65.20;100746.72;7711395;32;39998;-84
2023/01/22 20:10:00;;;;;;;45.67;23.85;;;;;;;5.52;64.82;100743.94;7711737;32;38085;-84